Cz?stochowa-Rudniki


Codes: EPCH/CZW
Name: Cz?stochowa-Rudniki
City: Cz?stochowa
Country: Poland
Elevation: 860 ft.

Photos at Cz?stochowa-Rudniki


   Photos courtesy of SpottingLog. You can add your own sightings and photos by signing up for a free trial today.



No photos found.

Weather at Cz?stochowa-Rudniki


Time (UTC)DescriptionTempratureWindCloud coverageVisibilityPressureHumidity
13-Jun-2024 03:00Broken Clouds5°C2 mph, S51%10000m1019hPa84%
13-Jun-2024 06:00Broken Clouds10°C4 mph, E67%10000m1018hPa71%
13-Jun-2024 09:00Overcast Clouds17°C7 mph, SE100%10000m1018hPa50%
13-Jun-2024 12:00Light Rain14°C11 mph, SE100%10000m1018hPa65%
13-Jun-2024 15:00Overcast Clouds15°C9 mph, SE89%10000m1017hPa60%
13-Jun-2024 18:00Broken Clouds13°C4 mph, SE74%10000m1018hPa74%
13-Jun-2024 21:00Scattered Clouds11°C4 mph, S48%10000m1019hPa82%
14-Jun-2024 00:00Scattered Clouds10°C4 mph, S49%10000m1019hPa87%
14-Jun-2024 03:00Overcast Clouds10°C4 mph, S87%10000m1019hPa77%
14-Jun-2024 06:00Overcast Clouds14°C4 mph, S88%10000m1018hPa60%
14-Jun-2024 09:00Overcast Clouds18°C7 mph, SE100%10000m1018hPa49%
14-Jun-2024 12:00Overcast Clouds20°C7 mph, SE100%10000m1017hPa43%
14-Jun-2024 15:00Overcast Clouds19°C9 mph, SE100%10000m1017hPa47%
14-Jun-2024 18:00Overcast Clouds16°C9 mph, SE100%10000m1017hPa65%
14-Jun-2024 21:00Scattered Clouds13°C7 mph, S46%10000m1018hPa78%
15-Jun-2024 00:00Scattered Clouds12°C7 mph, SE28%10000m1017hPa81%
15-Jun-2024 03:00Few Clouds11°C7 mph, SE19%10000m1016hPa81%
15-Jun-2024 06:00Few Clouds17°C11 mph, SE16%10000m1015hPa63%
15-Jun-2024 09:00Clear Sky22°C11 mph, SE5%10000m1014hPa44%
15-Jun-2024 12:00Clear Sky25°C11 mph, SE9%10000m1013hPa36%
15-Jun-2024 15:00Scattered Clouds25°C7 mph, S34%10000m1012hPa37%
15-Jun-2024 18:00Broken Clouds20°C7 mph, SE66%10000m1013hPa66%
15-Jun-2024 21:00Overcast Clouds17°C7 mph, SE100%10000m1014hPa77%
16-Jun-2024 00:00Overcast Clouds16°C2 mph, S100%10000m1013hPa76%
16-Jun-2024 03:00Overcast Clouds16°C2 mph, NW100%10000m1013hPa79%
16-Jun-2024 06:00Overcast Clouds19°C0 mph, SE100%10000m1013hPa72%
16-Jun-2024 09:00Light Rain17°C7 mph, NW100%10000m1014hPa83%
16-Jun-2024 12:00Light Rain18°C4 mph, W100%10000m1015hPa82%
16-Jun-2024 15:00Overcast Clouds18°C7 mph, W100%10000m1015hPa81%
16-Jun-2024 18:00Overcast Clouds17°C7 mph, W100%10000m1016hPa87%
16-Jun-2024 21:00Overcast Clouds16°C7 mph, SW100%10000m1017hPa86%
17-Jun-2024 00:00Overcast Clouds16°C4 mph, SW97%10000m1018hPa88%
17-Jun-2024 03:00Few Clouds13°C4 mph, W17%10000m1019hPa95%
17-Jun-2024 06:00Few Clouds19°C4 mph, W14%10000m1019hPa70%
17-Jun-2024 09:00Broken Clouds24°C4 mph, NW51%10000m1019hPa48%
17-Jun-2024 12:00Scattered Clouds27°C4 mph, W29%10000m1018hPa38%
17-Jun-2024 15:00Few Clouds27°C7 mph, NW18%10000m1018hPa36%
17-Jun-2024 18:00Few Clouds22°C7 mph, NE18%10000m1019hPa56%
17-Jun-2024 21:00Broken Clouds19°C4 mph, SE52%10000m1020hPa63%
18-Jun-2024 00:00Scattered Clouds17°C4 mph, S26%10000m1020hPa74%